Flight ASXVIP1X

  • Submitted By: Krzysztof H. Blaszkow
  • Departure Airport: Bornholm Rønne (EKRN)
  • Arrival Airport: Gdansk im. Lecha Walesy (EPGD)
  • Aircraft: BE58 (SP-MVL)
  • Flight Time: 01.19.20
  • Date Submitted: 12/14/2016
  • Status: Accepted
Flight Details
Gross Revenue:
(5 load / € 400.00 per unit
€ 2,000.00
Fuel Cost:
(79.8323 fuel used @ 0.45 / unit)
€ 35.92

Additional Log Information:

View Log

[21:42] - Carenado BARON B58 METAL BLUE
[21:42] - Flight ASXVIP1X is ready to depart EKRN with a final destination of EPGD.
[21:42] - Parking Brake Applied
[21:42] - Navigation Lights ON
[21:42] - Beacon Light ON
[21:42] - Instrument Lights ON
[21:42] - Recognition Lights ON
[21:42] - Wing Lights ON
[21:42] - Logo Lights ON
[21:42] - Cabin Lights ON
[21:42] - Boarding
[21:42] - ADF1 - 284.0
[21:42] - ADF2 - 240.0
[21:42] - NAV1 - 110.30
[21:42] - NAV2 - 112.00
[21:42] - COM1 - 121.37
[21:42] - COM2 - 127.90
[21:42] - Transponder - 3774
[21:45] - COM1 - 122.80
[21:45] - NAV1 - 112.00
[21:47] - NAV2 - 113.00
[21:47] - NAV2 - 112.00
[21:49] - Engine 1 Started
[21:50] - Taxi Lights ON 3AGL
[21:50] - Engine 2 Started
[21:50] - Parking Brake Released
[21:51] - Transponder - 2200
[21:52] - Taxiing to Runway
[21:52] - Landing Lights ON 3AGL
[21:52] - Taxi Lights OFF 3AGL
[21:52] - Strobe Lights ON 3AGL
[21:53] - Taking Off with 5 passengers on board
[21:54] - Take off at 102kts, with a pitch of 6deg and 287lbs of fuel on board
[21:54] - Wind Heading 272 | Wind Speed 8kts | Temperature 5 deg C
[21:54] - METAR Departure: EKRN 132120Z AUTO 28013KT 3900NDV BR OVC008/// 06/05 Q1019

[21:54] - Climbing to TOC
[21:55] - Gear up at 2024AGL
[22:00] - TOC reached
[22:00] - Cruise started
[22:00] - AutoPilot Engaged at 9196AGL
[22:04] - NAV1 - 114.20
[22:11] - COM2 - 123.45
[22:11] - Landing Lights OFF 9173AGL
[22:18] - NAV2 - 116.10
[22:36] - NAV1 - 116.10
[22:39] - TOD reached
[22:39] - Descending to destination
[22:40] - Landing Lights ON 6746AGL
[22:42] - Landing Shortly
[22:49] - NAV1 - 110.30
[22:50] - Gear down at 2999AGL
[22:50] - AutoPilot Disengaged at 2684AGL
[22:51] - Flaps to position 1 at 1946ft and 143kts
[22:54] - Landed at -148fpm. With 115lbs of fuel onboard and a pitch angle of 2deg.
[22:54] - Wind Heading 246 | Wind Speed 8kts | Temperature 0 deg C
[22:54] - METAR Arrival: EPGD 132230Z 25007KT 6000 OVC004 01/01 Q1017 R11/290095

[22:54] - Flaps to position 0
[22:55] - Taxiing to Gate
[22:55] - Taxi Lights ON 0AGL
[22:55] - Landing Lights OFF 0AGL
[22:55] - Strobe Lights OFF 0AGL
[23:00] - Parking Brake Applied
[23:00] - Arrived safely at EPGD. We hope you enjoyed your flight!
[23:01] - Taxi Lights OFF 0AGL
[23:01] - Engine 1 Stopped
[23:01] - Engine 2 Stopped
[23:02] - Carenado BARON B58 METAL BLUE
[23:02] - MaxSim Rate: 1x
[23:02] - SiouxAcars ver: 1.0.1.2

Route Map